createdAt,value
2023-09-16T00:01:46.207Z,19.30
2023-09-16T00:04:13.249Z,19.30
2023-09-16T00:06:40.194Z,19.20
2023-09-16T00:09:07.071Z,19.20
2023-09-16T00:11:34.050Z,19.20
2023-09-16T00:14:01.383Z,19.20
2023-09-16T00:16:30.464Z,19.10
2023-09-16T00:21:26.096Z,19.10
2023-09-16T00:23:54.018Z,19.00
2023-09-16T00:26:21.176Z,19.00
2023-09-16T00:28:49.122Z,19.00
2023-09-16T00:31:17.252Z,19.00
2023-09-16T00:33:44.631Z,19.00
2023-09-16T00:36:11.522Z,19.00
2023-09-16T00:38:38.504Z,19.00
2023-09-16T00:41:05.378Z,19.00
2023-09-16T00:43:32.177Z,18.90
2023-09-16T00:45:59.033Z,18.90
2023-09-16T00:48:26.275Z,18.90
2023-09-16T00:50:53.542Z,18.90
2023-09-16T00:53:21.236Z,18.90
2023-09-16T00:55:49.460Z,18.90
2023-09-16T00:58:20.138Z,18.80
2023-09-16T01:00:48.091Z,18.80
2023-09-16T01:03:17.391Z,18.90
2023-09-16T01:05:48.216Z,18.90
2023-09-16T01:08:16.513Z,18.90
2023-09-16T01:10:43.734Z,18.80
2023-09-16T01:13:11.125Z,18.80
2023-09-16T01:15:47.704Z,18.80
2023-09-16T01:18:34.458Z,18.80
2023-09-16T01:21:04.870Z,18.80
2023-09-16T01:23:33.765Z,18.80
2023-09-16T01:26:02.604Z,18.80
2023-09-16T01:28:29.472Z,18.80
2023-09-16T01:30:57.163Z,18.80
2023-09-16T01:33:31.395Z,18.70
2023-09-16T01:36:05.120Z,18.70
2023-09-16T01:38:34.700Z,18.70
2023-09-16T01:41:03.319Z,18.70
2023-09-16T01:43:30.458Z,18.60
2023-09-16T01:45:57.434Z,18.60
2023-09-16T01:48:36.410Z,18.60
2023-09-16T01:51:07.609Z,18.60
2023-09-16T01:53:34.551Z,18.50
2023-09-16T01:56:01.678Z,18.50
2023-09-16T01:58:28.751Z,18.50
2023-09-16T02:00:56.099Z,18.50
2023-09-16T02:03:23.057Z,18.40
2023-09-16T02:05:49.957Z,18.40
2023-09-16T02:08:17.201Z,18.40
2023-09-16T02:10:44.223Z,18.40
2023-09-16T02:13:11.079Z,18.40
2023-09-16T02:15:37.957Z,18.40
2023-09-16T02:18:05.138Z,18.40
2023-09-16T02:20:34.498Z,18.40
2023-09-16T02:23:03.326Z,18.30
2023-09-16T02:25:30.352Z,18.30
2023-09-16T02:27:57.169Z,18.30
2023-09-16T02:30:24.331Z,18.30
2023-09-16T02:32:51.531Z,18.30
2023-09-16T02:35:19.719Z,18.30
2023-09-16T02:37:46.534Z,18.30
2023-09-16T02:40:13.382Z,18.30
2023-09-16T02:42:40.244Z,18.30
2023-09-16T02:45:07.629Z,18.20
2023-09-16T02:47:35.680Z,18.30
2023-09-16T02:50:03.669Z,18.20
2023-09-16T02:52:31.794Z,18.20
2023-09-16T02:54:59.002Z,18.20
2023-09-16T02:57:25.944Z,18.20
2023-09-16T02:59:53.552Z,18.10
2023-09-16T03:02:21.503Z,18.10
2023-09-16T03:04:48.490Z,18.10
2023-09-16T03:07:15.646Z,18.10
2023-09-16T03:09:43.183Z,18.10
2023-09-16T03:12:12.217Z,18.10
2023-09-16T03:14:39.466Z,18.10
2023-09-16T03:17:07.401Z,18.00
2023-09-16T03:19:36.092Z,18.00
2023-09-16T03:22:03.222Z,18.00
2023-09-16T03:24:31.194Z,18.00
2023-09-16T03:26:58.255Z,18.00
2023-09-16T03:29:25.579Z,17.90
2023-09-16T03:31:53.748Z,17.90
2023-09-16T03:34:22.113Z,17.90
2023-09-16T03:36:49.187Z,17.90
2023-09-16T03:39:16.350Z,17.90
2023-09-16T03:41:43.321Z,17.90
2023-09-16T03:44:12.307Z,17.90
2023-09-16T03:46:42.919Z,17.90
2023-09-16T03:49:10.567Z,17.90
2023-09-16T03:51:41.129Z,17.90
2023-09-16T03:54:11.186Z,17.90
2023-09-16T03:56:38.804Z,17.90
2023-09-16T03:59:06.446Z,17.80
2023-09-16T04:01:33.686Z,17.80
2023-09-16T04:04:00.715Z,17.80
2023-09-16T04:06:27.701Z,17.70
2023-09-16T04:08:54.957Z,17.70
2023-09-16T04:11:22.722Z,17.80
2023-09-16T04:13:50.034Z,17.70
2023-09-16T04:16:17.283Z,17.80
2023-09-16T04:18:44.198Z,17.70
2023-09-16T04:21:11.134Z,17.80
2023-09-16T04:23:38.008Z,17.70
2023-09-16T04:26:10.014Z,17.70
2023-09-16T04:28:37.482Z,17.70
2023-09-16T04:31:05.636Z,17.60
2023-09-16T04:33:36.294Z,17.70
2023-09-16T04:36:05.151Z,17.70
2023-09-16T04:38:33.153Z,17.60
2023-09-16T04:41:01.242Z,17.60
2023-09-16T04:43:28.613Z,17.60
2023-09-16T04:45:56.039Z,17.60
2023-09-16T04:48:34.707Z,17.60
2023-09-16T04:51:04.665Z,17.50
2023-09-16T04:53:33.181Z,17.60
2023-09-16T04:56:01.607Z,17.50
2023-09-16T04:58:30.586Z,17.50
2023-09-16T05:01:02.431Z,17.50
2023-09-16T05:03:29.598Z,17.50
2023-09-16T05:05:56.730Z,17.40
2023-09-16T05:08:28.148Z,17.40
2023-09-16T05:10:57.055Z,17.40
2023-09-16T05:13:24.820Z,17.40
2023-09-16T05:15:53.014Z,17.40
2023-09-16T05:18:20.098Z,17.40
2023-09-16T05:20:50.746Z,17.50
2023-09-16T05:23:18.328Z,17.40
2023-09-16T05:25:46.877Z,17.40
2023-09-16T05:28:16.290Z,17.50
2023-09-16T05:30:43.788Z,17.40
2023-09-16T05:33:11.809Z,17.50
2023-09-16T05:35:42.907Z,17.50
2023-09-16T05:38:11.972Z,17.50
2023-09-16T05:40:39.115Z,17.50
2023-09-16T05:43:06.907Z,17.60
2023-09-16T05:45:34.004Z,17.50
2023-09-16T05:48:04.171Z,17.50
2023-09-16T05:50:33.611Z,17.50
2023-09-16T05:53:00.726Z,17.50
2023-09-16T05:55:27.759Z,17.60
2023-09-16T05:57:55.598Z,17.50
2023-09-16T06:00:22.564Z,17.60
2023-09-16T06:02:51.250Z,17.50
2023-09-16T06:05:18.122Z,17.60
2023-09-16T06:07:46.698Z,17.60
2023-09-16T06:10:13.724Z,17.60
2023-09-16T06:12:40.791Z,17.60
2023-09-16T06:15:09.287Z,17.70
2023-09-16T06:17:37.054Z,17.60
2023-09-16T06:20:04.686Z,17.70
2023-09-16T06:22:31.848Z,17.70
2023-09-16T06:24:59.014Z,17.70
2023-09-16T06:27:27.040Z,17.80
2023-09-16T06:29:54.370Z,17.80
2023-09-16T06:32:22.833Z,17.90
2023-09-16T06:34:53.900Z,17.90
2023-09-16T06:37:20.732Z,18.00
2023-09-16T06:39:49.010Z,18.10
2023-09-16T06:42:19.364Z,18.10
2023-09-16T06:44:50.637Z,18.20
2023-09-16T06:47:17.491Z,18.20
2023-09-16T06:49:44.363Z,18.30
2023-09-16T06:52:11.278Z,18.30
2023-09-16T06:54:38.219Z,18.40
2023-09-16T06:57:05.154Z,18.40
2023-09-16T06:59:32.017Z,18.50
2023-09-16T07:01:59.113Z,18.50
2023-09-16T07:04:29.100Z,18.60
2023-09-16T07:06:56.191Z,18.60
2023-09-16T07:09:23.963Z,18.70
2023-09-16T07:11:50.908Z,18.80
2023-09-16T07:14:17.784Z,19.10
2023-09-16T07:16:44.740Z,19.30
2023-09-16T07:19:11.751Z,19.60
2023-09-16T07:21:38.701Z,19.80
2023-09-16T07:24:06.716Z,20.00
2023-09-16T07:26:33.880Z,20.10
2023-09-16T07:29:01.153Z,20.20
2023-09-16T07:31:28.263Z,20.30
2023-09-16T07:33:55.643Z,20.40
2023-09-16T07:36:22.919Z,20.30
2023-09-16T07:38:50.004Z,20.40
2023-09-16T07:41:17.152Z,20.50
2023-09-16T07:43:43.999Z,20.60
2023-09-16T07:46:10.971Z,20.60
2023-09-16T07:48:38.005Z,20.60
2023-09-16T07:51:04.898Z,20.60
2023-09-16T07:53:31.752Z,20.60
2023-09-16T07:55:58.674Z,20.60
2023-09-16T07:58:25.693Z,20.60
2023-09-16T08:00:53.544Z,20.60
2023-09-16T08:03:20.902Z,20.70
2023-09-16T08:05:47.999Z,20.70
2023-09-16T08:08:14.896Z,20.80
2023-09-16T08:10:45.583Z,20.80
2023-09-16T08:13:12.649Z,20.80
2023-09-16T08:15:39.646Z,20.90
2023-09-16T08:18:06.647Z,20.90
2023-09-16T08:20:33.564Z,21.00
2023-09-16T08:23:00.515Z,21.10
2023-09-16T08:25:27.514Z,21.20
2023-09-16T08:27:54.563Z,21.30
2023-09-16T08:30:22.601Z,21.60
2023-09-16T08:32:49.907Z,21.80
2023-09-16T08:35:16.879Z,22.20
2023-09-16T08:37:43.870Z,22.40
2023-09-16T08:40:11.213Z,22.80
2023-09-16T08:42:42.561Z,23.20
2023-09-16T08:45:15.540Z,23.60
2023-09-16T08:47:46.931Z,23.70
2023-09-16T08:50:16.542Z,24.00
2023-09-16T08:52:49.970Z,24.20
2023-09-16T08:55:17.646Z,24.30
2023-09-16T08:57:50.653Z,24.40
2023-09-16T09:00:18.226Z,24.60
2023-09-16T09:02:46.045Z,25.00
2023-09-16T09:05:13.561Z,25.30
2023-09-16T09:07:42.184Z,25.80
2023-09-16T09:10:12.332Z,26.10
2023-09-16T09:12:41.121Z,26.40
2023-09-16T09:15:15.110Z,26.60
2023-09-16T09:18:00.419Z,26.80
2023-09-16T09:20:28.955Z,27.00
2023-09-16T09:22:57.036Z,27.20
2023-09-16T09:25:26.005Z,27.30
2023-09-16T09:27:54.646Z,27.50
2023-09-16T09:30:28.120Z,27.70
2023-09-16T09:32:59.431Z,27.80
2023-09-16T09:35:30.823Z,28.00
2023-09-16T09:37:58.880Z,28.40
2023-09-16T09:40:26.001Z,28.90
2023-09-16T09:42:55.029Z,29.20
2023-09-16T09:45:24.090Z,29.50
2023-09-16T09:47:52.984Z,29.80
2023-09-16T09:50:21.584Z,30.10
2023-09-16T09:52:51.456Z,30.50
2023-09-16T09:55:19.621Z,31.00
2023-09-16T09:57:52.066Z,31.70
2023-09-16T10:00:21.397Z,32.50
2023-09-16T10:02:49.280Z,32.80
2023-09-16T10:05:23.553Z,32.20
2023-09-16T10:07:52.945Z,31.40
2023-09-16T10:10:21.460Z,30.80
2023-09-16T10:12:51.765Z,30.70
2023-09-16T10:15:23.239Z,31.50
2023-09-16T10:17:50.431Z,32.60
2023-09-16T10:20:17.972Z,32.50
2023-09-16T10:22:45.568Z,32.50
2023-09-16T10:25:17.573Z,32.70
2023-09-16T10:28:02.867Z,33.70
2023-09-16T10:30:31.673Z,34.40
2023-09-16T10:33:07.162Z,34.60
2023-09-16T10:35:38.422Z,34.90
2023-09-16T10:38:07.518Z,35.10
2023-09-16T10:40:35.011Z,35.20
2023-09-16T10:43:06.071Z,35.10
2023-09-16T10:45:33.396Z,35.00
2023-09-16T10:48:03.949Z,35.00
2023-09-16T10:50:37.694Z,35.10
2023-09-16T10:53:21.335Z,35.10
2023-09-16T10:56:06.207Z,35.30
2023-09-16T10:58:49.390Z,35.60
2023-09-16T11:01:27.591Z,35.60
2023-09-16T11:03:59.199Z,35.60
2023-09-16T11:06:26.578Z,35.30
2023-09-16T11:08:53.612Z,35.00
2023-09-16T11:11:22.222Z,34.80
2023-09-16T11:13:49.791Z,34.50
2023-09-16T11:16:16.736Z,34.10
2023-09-16T11:18:44.853Z,33.70
2023-09-16T11:21:13.397Z,33.40
2023-09-16T11:23:40.385Z,33.20
2023-09-16T11:26:07.514Z,32.90
2023-09-16T11:28:36.745Z,32.60
2023-09-16T11:31:03.770Z,32.50
2023-09-16T11:33:34.907Z,32.50
2023-09-16T11:36:12.206Z,32.60
2023-09-16T11:38:52.721Z,32.60
2023-09-16T11:41:19.908Z,32.50
2023-09-16T11:43:47.252Z,32.40
2023-09-16T11:46:14.301Z,32.10
2023-09-16T11:49:08.792Z,31.90
2023-09-16T11:51:38.795Z,31.60
2023-09-16T11:54:06.230Z,31.70
2023-09-16T11:56:37.073Z,31.80
2023-09-16T11:59:04.923Z,32.30
2023-09-16T12:01:34.389Z,32.50
2023-09-16T12:04:05.168Z,32.30
2023-09-16T12:06:36.075Z,32.10
2023-09-16T12:09:05.404Z,32.00
2023-09-16T12:11:33.895Z,32.10
2023-09-16T12:14:02.037Z,32.20
2023-09-16T12:16:29.363Z,32.30
2023-09-16T12:18:57.042Z,32.50
2023-09-16T12:21:24.293Z,32.60
2023-09-16T12:23:53.487Z,32.80
2023-09-16T12:26:21.126Z,33.20
2023-09-16T12:28:48.958Z,33.10
2023-09-16T12:31:22.884Z,32.90
2023-09-16T12:33:55.564Z,32.40
2023-09-16T12:36:28.755Z,32.00
2023-09-16T12:39:02.149Z,31.60
2023-09-16T12:41:30.238Z,31.20
2023-09-16T12:43:59.314Z,30.80
2023-09-16T12:46:29.310Z,30.50
2023-09-16T12:48:57.248Z,30.30
2023-09-16T12:51:25.246Z,30.10
2023-09-16T12:53:53.924Z,30.00
2023-09-16T12:56:21.199Z,30.00
2023-09-16T12:58:52.385Z,29.80
2023-09-16T13:01:21.658Z,29.70
2023-09-16T13:03:50.041Z,29.60
2023-09-16T13:06:18.510Z,29.40
2023-09-16T13:08:46.978Z,29.20
2023-09-16T13:11:15.559Z,29.10
2023-09-16T13:13:42.879Z,29.00
2023-09-16T13:16:12.144Z,29.00
2023-09-16T13:18:40.648Z,28.90
2023-09-16T13:21:07.906Z,28.90
2023-09-16T13:23:35.542Z,28.90
2023-09-16T13:26:11.512Z,28.80
2023-09-16T13:28:39.171Z,28.80
2023-09-16T13:31:06.387Z,28.70
2023-09-16T13:34:11.974Z,28.70
2023-09-16T13:36:39.868Z,28.70
2023-09-16T13:39:09.047Z,28.70
2023-09-16T13:41:38.018Z,28.70
2023-09-16T13:44:06.520Z,28.60
2023-09-16T13:46:34.037Z,28.40
2023-09-16T13:49:01.178Z,28.50
2023-09-16T13:51:28.420Z,28.50
2023-09-16T13:53:55.669Z,28.50
2023-09-16T13:56:25.052Z,28.50
2023-09-16T13:58:52.330Z,28.60
2023-09-16T14:01:19.785Z,28.70
2023-09-16T14:03:47.021Z,28.80
2023-09-16T14:06:14.241Z,28.80
2023-09-16T14:08:41.122Z,28.80
2023-09-16T14:11:08.100Z,28.80
2023-09-16T14:13:35.008Z,28.70
2023-09-16T14:16:02.085Z,28.50
2023-09-16T14:18:29.105Z,28.40
2023-09-16T14:20:56.098Z,28.30
2023-09-16T14:23:23.017Z,28.20
2023-09-16T14:25:50.002Z,28.20
2023-09-16T14:28:16.989Z,28.20
2023-09-16T14:30:44.041Z,28.20
2023-09-16T14:33:10.987Z,28.20
2023-09-16T14:35:37.979Z,28.20
2023-09-16T14:38:05.373Z,28.20
2023-09-16T14:40:36.069Z,28.20
2023-09-16T14:43:03.740Z,28.20
2023-09-16T14:45:30.744Z,28.20
2023-09-16T14:47:57.912Z,28.10
2023-09-16T14:50:24.921Z,28.10
2023-09-16T14:52:51.936Z,28.10
2023-09-16T14:55:19.348Z,28.10
2023-09-16T14:57:47.000Z,28.10
2023-09-16T15:00:14.440Z,28.00
2023-09-16T15:02:43.453Z,27.90
2023-09-16T15:05:11.091Z,28.00
2023-09-16T15:07:39.306Z,27.90
2023-09-16T15:10:08.623Z,27.90
2023-09-16T15:12:35.563Z,27.90
2023-09-16T15:15:02.808Z,27.80
2023-09-16T15:17:29.748Z,27.80
2023-09-16T15:19:56.647Z,27.80
2023-09-16T15:22:25.749Z,27.80
2023-09-16T15:24:53.094Z,27.80
2023-09-16T15:27:21.301Z,27.80
2023-09-16T15:29:48.454Z,27.80
2023-09-16T15:32:43.445Z,27.70
2023-09-16T15:35:02.762Z,27.70
2023-09-16T15:37:30.598Z,27.70
2023-09-16T15:39:58.063Z,27.70
2023-09-16T15:42:25.064Z,27.60
2023-09-16T15:44:51.989Z,27.60
2023-09-16T15:47:18.990Z,27.60
2023-09-16T15:49:46.009Z,27.50
2023-09-16T15:52:13.210Z,27.40
2023-09-16T15:54:40.139Z,27.50
2023-09-16T15:57:07.066Z,27.40
2023-09-16T15:59:34.069Z,27.40
2023-09-16T16:02:01.154Z,27.30
2023-09-16T16:04:28.336Z,27.30
2023-09-16T16:06:55.319Z,27.30
2023-09-16T16:09:22.583Z,27.30
2023-09-16T16:11:49.481Z,27.30
2023-09-16T16:14:16.358Z,27.20
2023-09-16T16:16:43.455Z,27.20
2023-09-16T16:19:12.482Z,27.20
2023-09-16T16:21:39.492Z,27.20
2023-09-16T16:24:06.918Z,27.10
2023-09-16T16:26:34.264Z,27.00
2023-09-16T16:29:01.854Z,27.10
2023-09-16T16:31:29.429Z,27.00
2023-09-16T16:33:58.667Z,27.00
2023-09-16T16:36:25.715Z,27.00
2023-09-16T16:38:52.738Z,27.00
2023-09-16T16:41:21.024Z,27.00
2023-09-16T16:43:49.857Z,26.90
2023-09-16T16:46:17.934Z,26.90
2023-09-16T16:48:45.152Z,26.90
2023-09-16T16:51:14.623Z,26.80
2023-09-16T16:53:42.740Z,26.80
2023-09-16T16:56:09.720Z,26.80
2023-09-16T16:58:38.598Z,26.80
2023-09-16T17:01:05.788Z,26.70
2023-09-16T17:03:32.916Z,26.70
2023-09-16T17:05:59.924Z,26.60
2023-09-16T17:08:26.845Z,26.60
2023-09-16T17:10:53.797Z,26.60
2023-09-16T17:13:20.843Z,26.60
2023-09-16T17:15:47.770Z,26.50
2023-09-16T17:18:14.705Z,26.50
2023-09-16T17:20:41.846Z,26.50
2023-09-16T17:23:08.851Z,26.50
2023-09-16T17:25:36.761Z,26.40
2023-09-16T17:28:06.189Z,26.40
2023-09-16T17:30:36.164Z,26.40
2023-09-16T17:33:04.635Z,26.30
2023-09-16T17:35:32.197Z,26.30
2023-09-16T17:37:59.250Z,26.30
2023-09-16T17:40:26.150Z,26.20
2023-09-16T17:42:53.125Z,26.20
2023-09-16T17:45:20.077Z,26.10
2023-09-16T17:47:47.078Z,26.10
2023-09-16T17:50:14.142Z,26.10
2023-09-16T17:52:42.139Z,26.00
2023-09-16T17:55:09.558Z,26.00
2023-09-16T17:57:36.585Z,25.90
2023-09-16T18:00:03.838Z,25.90
2023-09-16T18:02:41.182Z,25.80
2023-09-16T18:05:08.334Z,25.80
2023-09-16T18:07:35.955Z,25.80
2023-09-16T18:10:04.454Z,25.80
2023-09-16T18:12:31.784Z,25.70
2023-09-16T18:14:59.074Z,25.70
2023-09-16T18:17:26.422Z,25.70
2023-09-16T18:19:53.323Z,25.70
2023-09-16T18:22:20.304Z,25.60
2023-09-16T18:24:47.376Z,25.60
2023-09-16T18:27:14.794Z,25.60
2023-09-16T18:29:41.763Z,25.60
2023-09-16T18:32:08.751Z,25.50
2023-09-16T18:34:35.870Z,25.50
2023-09-16T18:37:03.038Z,25.50
2023-09-16T18:39:31.281Z,25.40
2023-09-16T18:41:58.244Z,25.40
2023-09-16T18:44:25.672Z,25.40
2023-09-16T18:46:52.921Z,25.40
2023-09-16T18:49:20.140Z,25.30
2023-09-16T18:51:47.252Z,25.30
2023-09-16T18:54:14.286Z,25.30
2023-09-16T18:56:41.242Z,25.30
2023-09-16T18:59:08.120Z,25.40
2023-09-16T19:01:35.159Z,25.40
2023-09-16T19:04:02.565Z,25.40
2023-09-16T19:06:29.588Z,25.40
2023-09-16T19:08:56.494Z,25.30
2023-09-16T19:11:25.683Z,25.40
2023-09-16T19:13:53.106Z,25.40
2023-09-16T19:18:47.261Z,25.40
2023-09-16T19:21:14.328Z,25.40
2023-09-16T19:23:42.810Z,25.40
2023-09-16T19:26:09.868Z,25.40
2023-09-16T19:28:36.812Z,25.40
2023-09-16T19:31:04.323Z,25.40
2023-09-16T19:33:31.496Z,25.30
2023-09-16T19:36:01.510Z,25.30
2023-09-16T19:38:28.612Z,25.30
2023-09-16T19:40:56.889Z,25.00
2023-09-16T19:43:24.240Z,25.10
2023-09-16T19:46:00.752Z,25.10
2023-09-16T19:48:27.965Z,25.00
2023-09-16T19:50:54.815Z,25.00
2023-09-16T19:53:21.864Z,25.10
2023-09-16T19:55:48.734Z,25.10
2023-09-16T19:58:15.659Z,25.10
2023-09-16T20:00:42.614Z,25.00
2023-09-16T20:03:09.859Z,24.70
2023-09-16T20:05:38.111Z,24.80
2023-09-16T20:08:06.351Z,24.90
2023-09-16T20:10:34.245Z,25.00
2023-09-16T20:13:01.244Z,25.00
2023-09-16T20:15:28.661Z,25.00
2023-09-16T20:17:55.666Z,25.00
2023-09-16T20:20:22.562Z,24.90
2023-09-16T20:22:49.543Z,25.00
2023-09-16T20:25:16.562Z,24.90
2023-09-16T20:27:43.935Z,24.90
2023-09-16T20:30:11.579Z,24.90
2023-09-16T20:32:38.630Z,24.80
2023-09-16T20:35:05.799Z,24.80
2023-09-16T20:37:32.702Z,24.80
2023-09-16T20:40:00.283Z,24.80
2023-09-16T20:42:28.893Z,24.70
2023-09-16T20:44:56.042Z,24.70
2023-09-16T20:47:23.030Z,24.70
2023-09-16T20:49:49.981Z,24.70
2023-09-16T20:52:17.044Z,24.70
2023-09-16T20:54:45.421Z,24.70
2023-09-16T20:57:12.317Z,24.70
2023-09-16T20:59:39.226Z,24.70
2023-09-16T21:02:06.211Z,24.70
2023-09-16T21:04:33.488Z,24.70
2023-09-16T21:07:00.409Z,24.60
2023-09-16T21:09:27.246Z,24.60
2023-09-16T21:11:54.118Z,24.60
2023-09-16T21:14:21.071Z,24.60
2023-09-16T21:16:48.100Z,24.50
2023-09-16T21:19:15.143Z,24.50
2023-09-16T21:21:43.069Z,24.50
2023-09-16T21:24:10.086Z,24.50
2023-09-16T21:26:36.969Z,24.40
2023-09-16T21:29:04.398Z,24.40
2023-09-16T21:31:31.561Z,24.40
2023-09-16T21:33:58.579Z,24.40
2023-09-16T21:36:25.689Z,24.30
2023-09-16T21:38:52.660Z,24.20
2023-09-16T21:41:19.814Z,24.20
2023-09-16T21:43:47.880Z,24.20
2023-09-16T21:46:17.415Z,24.10
2023-09-16T21:48:44.730Z,24.10
2023-09-16T21:51:11.695Z,24.00
2023-09-16T21:53:38.689Z,23.90
2023-09-16T21:56:05.651Z,23.90
2023-09-16T21:58:32.536Z,23.80
2023-09-16T22:00:59.648Z,23.80
2023-09-16T22:03:26.703Z,23.80
2023-09-16T22:05:54.809Z,23.80
2023-09-16T22:08:21.766Z,23.80
2023-09-16T22:10:48.816Z,23.80
2023-09-16T22:13:15.718Z,23.80
2023-09-16T22:15:42.886Z,23.80
2023-09-16T22:18:09.842Z,23.70
2023-09-16T22:20:39.400Z,23.70
2023-09-16T22:23:06.418Z,23.70
2023-09-16T22:25:33.333Z,23.70
2023-09-16T22:28:00.303Z,23.70
2023-09-16T22:30:27.176Z,23.60
2023-09-16T22:32:54.600Z,23.60
2023-09-16T22:35:21.649Z,23.60
2023-09-16T22:37:48.524Z,23.50
2023-09-16T22:40:15.489Z,23.50
2023-09-16T22:42:43.643Z,23.50
2023-09-16T22:45:11.759Z,23.50
2023-09-16T22:47:38.765Z,23.40
2023-09-16T22:50:06.554Z,23.40
2023-09-16T22:52:33.677Z,23.40
2023-09-16T22:55:01.338Z,23.40
2023-09-16T22:57:28.280Z,23.30
2023-09-16T22:59:56.138Z,23.30
2023-09-16T23:02:24.463Z,23.30
2023-09-16T23:04:52.037Z,23.20
2023-09-16T23:07:19.773Z,23.20
2023-09-16T23:09:46.832Z,23.20
2023-09-16T23:12:13.748Z,23.10
2023-09-16T23:14:40.782Z,23.10
2023-09-16T23:17:08.559Z,23.00
2023-09-16T23:19:35.775Z,23.00
2023-09-16T23:22:02.827Z,23.00
2023-09-16T23:24:29.753Z,23.00
2023-09-16T23:26:56.698Z,22.90
2023-09-16T23:29:23.932Z,22.90
2023-09-16T23:31:51.323Z,22.90
2023-09-16T23:34:18.774Z,22.90
2023-09-16T23:36:45.660Z,22.90
2023-09-16T23:39:12.609Z,22.80
2023-09-16T23:41:39.562Z,22.80
2023-09-16T23:44:07.561Z,22.90
2023-09-16T23:46:36.093Z,22.90
2023-09-16T23:49:03.688Z,22.80
2023-09-16T23:51:30.776Z,22.90
2023-09-16T23:53:57.961Z,22.90
2023-09-16T23:56:25.585Z,22.80
2023-09-16T23:58:52.604Z,22.70
